sensor_id;sensor_type;location;lat;lon;timestamp;P1;durP1;ratioP1;P2;durP2;ratioP2
48777;SDS011;34578;0.000;0.000;2023-07-30T00:03:34;2.28;;;1.40;;
48777;SDS011;34578;0.000;0.000;2023-07-30T00:08:34;2.90;;;1.50;;
48777;SDS011;34578;0.000;0.000;2023-07-30T00:13:34;1.83;;;1.63;;
48777;SDS011;34578;0.000;0.000;2023-07-30T00:18:35;2.50;;;1.50;;
48777;SDS011;34578;0.000;0.000;2023-07-30T00:23:35;1.83;;;1.20;;
48777;SDS011;34578;0.000;0.000;2023-07-30T00:28:35;0.90;;;0.90;;
48777;SDS011;34578;0.000;0.000;2023-07-30T00:33:36;1.17;;;1.03;;
48777;SDS011;34578;0.000;0.000;2023-07-30T00:38:37;1.52;;;0.93;;
48777;SDS011;34578;0.000;0.000;2023-07-30T00:43:37;1.60;;;1.30;;
48777;SDS011;34578;0.000;0.000;2023-07-30T00:48:38;2.63;;;1.27;;
48777;SDS011;34578;0.000;0.000;2023-07-30T00:53:38;1.42;;;1.10;;
48777;SDS011;34578;0.000;0.000;2023-07-30T00:58:39;2.45;;;1.10;;
48777;SDS011;34578;0.000;0.000;2023-07-30T01:03:41;1.35;;;1.23;;
48777;SDS011;34578;0.000;0.000;2023-07-30T01:08:41;1.50;;;1.20;;
48777;SDS011;34578;0.000;0.000;2023-07-30T01:13:42;1.65;;;1.20;;
48777;SDS011;34578;0.000;0.000;2023-07-30T01:18:42;2.20;;;1.40;;
48777;SDS011;34578;0.000;0.000;2023-07-30T01:23:43;0.73;;;0.73;;
48777;SDS011;34578;0.000;0.000;2023-07-30T01:28:45;1.00;;;0.90;;
48777;SDS011;34578;0.000;0.000;2023-07-30T01:33:48;1.38;;;0.95;;
48777;SDS011;34578;0.000;0.000;2023-07-30T01:38:52;1.20;;;0.88;;
48777;SDS011;34578;0.000;0.000;2023-07-30T01:43:53;1.42;;;1.30;;
48777;SDS011;34578;0.000;0.000;2023-07-30T01:48:54;1.67;;;1.50;;
48777;SDS011;34578;0.000;0.000;2023-07-30T01:53:54;1.17;;;0.80;;
48777;SDS011;34578;0.000;0.000;2023-07-30T01:58:54;0.73;;;0.70;;
48777;SDS011;34578;0.000;0.000;2023-07-30T02:03:55;1.27;;;1.00;;
48777;SDS011;34578;0.000;0.000;2023-07-30T02:08:55;0.83;;;0.83;;
48777;SDS011;34578;0.000;0.000;2023-07-30T02:13:56;0.95;;;0.90;;
48777;SDS011;34578;0.000;0.000;2023-07-30T02:18:56;1.20;;;0.93;;
48777;SDS011;34578;0.000;0.000;2023-07-30T02:23:56;1.60;;;0.90;;
48777;SDS011;34578;0.000;0.000;2023-07-30T02:28:57;1.47;;;1.30;;
48777;SDS011;34578;0.000;0.000;2023-07-30T02:34:00;1.02;;;0.93;;
48777;SDS011;34578;0.000;0.000;2023-07-30T02:39:00;1.50;;;1.40;;
48777;SDS011;34578;0.000;0.000;2023-07-30T02:44:01;1.55;;;1.13;;
48777;SDS011;34578;0.000;0.000;2023-07-30T02:49:01;1.10;;;0.77;;
48777;SDS011;34578;0.000;0.000;2023-07-30T02:54:05;1.40;;;1.00;;
48777;SDS011;34578;0.000;0.000;2023-07-30T02:59:07;1.10;;;0.90;;
48777;SDS011;34578;0.000;0.000;2023-07-30T03:04:07;1.15;;;0.95;;
48777;SDS011;34578;0.000;0.000;2023-07-30T03:09:07;1.45;;;0.85;;
48777;SDS011;34578;0.000;0.000;2023-07-30T03:14:08;1.30;;;1.20;;
48777;SDS011;34578;0.000;0.000;2023-07-30T03:19:08;6.07;;;1.40;;
48777;SDS011;34578;0.000;0.000;2023-07-30T03:24:09;1.33;;;1.23;;
48777;SDS011;34578;0.000;0.000;2023-07-30T03:29:09;0.77;;;0.75;;
48777;SDS011;34578;0.000;0.000;2023-07-30T03:34:10;1.23;;;0.80;;
48777;SDS011;34578;0.000;0.000;2023-07-30T03:39:10;1.47;;;0.90;;
48777;SDS011;34578;0.000;0.000;2023-07-30T03:44:11;0.80;;;0.80;;
48777;SDS011;34578;0.000;0.000;2023-07-30T03:49:11;2.60;;;1.10;;
48777;SDS011;34578;0.000;0.000;2023-07-30T03:54:12;1.25;;;0.73;;
48777;SDS011;34578;0.000;0.000;2023-07-30T03:59:12;1.20;;;0.90;;
48777;SDS011;34578;0.000;0.000;2023-07-30T04:04:12;1.57;;;1.30;;
48777;SDS011;34578;0.000;0.000;2023-07-30T04:09:13;1.10;;;1.00;;
48777;SDS011;34578;0.000;0.000;2023-07-30T04:14:13;0.83;;;0.80;;
48777;SDS011;34578;0.000;0.000;2023-07-30T04:19:13;0.93;;;0.83;;
48777;SDS011;34578;0.000;0.000;2023-07-30T04:24:14;0.73;;;0.57;;
48777;SDS011;34578;0.000;0.000;2023-07-30T04:29:14;1.23;;;1.13;;
48777;SDS011;34578;0.000;0.000;2023-07-30T04:34:16;1.13;;;0.85;;
48777;SDS011;34578;0.000;0.000;2023-07-30T04:39:17;1.05;;;0.95;;
48777;SDS011;34578;0.000;0.000;2023-07-30T04:44:17;0.80;;;0.80;;
48777;SDS011;34578;0.000;0.000;2023-07-30T04:49:18;1.30;;;1.03;;
48777;SDS011;34578;0.000;0.000;2023-07-30T04:54:18;1.50;;;0.87;;
48777;SDS011;34578;0.000;0.000;2023-07-30T04:59:18;1.67;;;0.70;;
48777;SDS011;34578;0.000;0.000;2023-07-30T05:04:19;0.95;;;0.85;;
48777;SDS011;34578;0.000;0.000;2023-07-30T05:09:19;0.85;;;0.80;;
48777;SDS011;34578;0.000;0.000;2023-07-30T05:14:20;1.00;;;0.90;;
48777;SDS011;34578;0.000;0.000;2023-07-30T05:19:20;1.00;;;0.82;;
48777;SDS011;34578;0.000;0.000;2023-07-30T05:24:21;1.30;;;1.20;;
48777;SDS011;34578;0.000;0.000;2023-07-30T05:29:21;1.20;;;0.65;;
48777;SDS011;34578;0.000;0.000;2023-07-30T05:34:22;1.50;;;0.97;;
48777;SDS011;34578;0.000;0.000;2023-07-30T05:39:22;2.60;;;1.20;;
48777;SDS011;34578;0.000;0.000;2023-07-30T05:44:22;1.00;;;0.90;;
48777;SDS011;34578;0.000;0.000;2023-07-30T05:49:23;0.67;;;0.67;;
48777;SDS011;34578;0.000;0.000;2023-07-30T05:54:23;1.17;;;1.00;;
48777;SDS011;34578;0.000;0.000;2023-07-30T05:59:23;1.40;;;0.80;;
48777;SDS011;34578;0.000;0.000;2023-07-30T06:04:24;1.43;;;1.03;;
48777;SDS011;34578;0.000;0.000;2023-07-30T06:09:24;1.43;;;1.20;;
48777;SDS011;34578;0.000;0.000;2023-07-30T06:14:25;1.73;;;0.80;;
48777;SDS011;34578;0.000;0.000;2023-07-30T06:19:27;2.55;;;1.40;;
48777;SDS011;34578;0.000;0.000;2023-07-30T06:24:27;1.80;;;1.30;;
48777;SDS011;34578;0.000;0.000;2023-07-30T06:29:30;1.55;;;1.00;;
48777;SDS011;34578;0.000;0.000;2023-07-30T06:34:30;1.53;;;1.30;;
48777;SDS011;34578;0.000;0.000;2023-07-30T06:39:31;1.63;;;1.10;;
48777;SDS011;34578;0.000;0.000;2023-07-30T06:44:31;1.10;;;1.00;;
48777;SDS011;34578;0.000;0.000;2023-07-30T06:49:31;2.10;;;1.20;;
48777;SDS011;34578;0.000;0.000;2023-07-30T06:54:34;3.05;;;1.23;;
48777;SDS011;34578;0.000;0.000;2023-07-30T06:59:35;3.00;;;1.30;;
48777;SDS011;34578;0.000;0.000;2023-07-30T07:04:35;2.88;;;1.70;;
48777;SDS011;34578;0.000;0.000;2023-07-30T07:09:36;2.30;;;1.30;;
48777;SDS011;34578;0.000;0.000;2023-07-30T07:14:36;2.10;;;1.40;;
48777;SDS011;34578;0.000;0.000;2023-07-30T07:19:36;3.67;;;1.48;;
48777;SDS011;34578;0.000;0.000;2023-07-30T07:24:37;0.80;;;0.80;;
48777;SDS011;34578;0.000;0.000;2023-07-30T07:29:37;3.10;;;1.30;;
48777;SDS011;34578;0.000;0.000;2023-07-30T07:34:38;3.80;;;1.30;;
48777;SDS011;34578;0.000;0.000;2023-07-30T07:39:38;1.40;;;1.17;;
48777;SDS011;34578;0.000;0.000;2023-07-30T07:44:38;2.33;;;1.50;;
48777;SDS011;34578;0.000;0.000;2023-07-30T07:49:39;1.80;;;1.23;;
48777;SDS011;34578;0.000;0.000;2023-07-30T07:54:39;2.33;;;1.80;;
48777;SDS011;34578;0.000;0.000;2023-07-30T07:59:42;1.75;;;1.50;;
48777;SDS011;34578;0.000;0.000;2023-07-30T08:04:44;2.28;;;1.08;;
48777;SDS011;34578;0.000;0.000;2023-07-30T08:09:45;1.80;;;1.40;;
48777;SDS011;34578;0.000;0.000;2023-07-30T08:14:45;1.93;;;1.53;;
48777;SDS011;34578;0.000;0.000;2023-07-30T08:19:46;1.87;;;1.00;;
48777;SDS011;34578;0.000;0.000;2023-07-30T08:24:46;2.83;;;1.27;;
48777;SDS011;34578;0.000;0.000;2023-07-30T08:29:46;3.07;;;1.57;;
48777;SDS011;34578;0.000;0.000;2023-07-30T08:34:47;2.73;;;1.50;;
48777;SDS011;34578;0.000;0.000;2023-07-30T08:39:47;4.10;;;1.40;;
48777;SDS011;34578;0.000;0.000;2023-07-30T08:44:48;2.67;;;1.42;;
48777;SDS011;34578;0.000;0.000;2023-07-30T08:49:48;1.50;;;1.40;;
48777;SDS011;34578;0.000;0.000;2023-07-30T08:54:48;1.80;;;1.30;;
48777;SDS011;34578;0.000;0.000;2023-07-30T08:59:50;3.30;;;1.45;;
48777;SDS011;34578;0.000;0.000;2023-07-30T09:05:04;1.83;;;1.30;;
48777;SDS011;34578;0.000;0.000;2023-07-30T09:10:05;2.90;;;1.33;;
48777;SDS011;34578;0.000;0.000;2023-07-30T09:15:06;1.80;;;1.20;;
48777;SDS011;34578;0.000;0.000;2023-07-30T09:20:07;1.52;;;1.23;;
48777;SDS011;34578;0.000;0.000;2023-07-30T09:25:08;3.33;;;1.45;;
48777;SDS011;34578;0.000;0.000;2023-07-30T09:30:11;1.90;;;1.30;;
48777;SDS011;34578;0.000;0.000;2023-07-30T09:35:11;1.23;;;0.93;;
48777;SDS011;34578;0.000;0.000;2023-07-30T09:40:12;2.70;;;1.60;;
48777;SDS011;34578;0.000;0.000;2023-07-30T09:45:33;1.70;;;1.30;;
48777;SDS011;34578;0.000;0.000;2023-07-30T09:50:38;3.63;;;1.40;;
48777;SDS011;34578;0.000;0.000;2023-07-30T09:55:38;2.67;;;1.50;;
48777;SDS011;34578;0.000;0.000;2023-07-30T10:00:38;1.57;;;1.20;;
48777;SDS011;34578;0.000;0.000;2023-07-30T10:05:39;14.52;;;2.00;;
48777;SDS011;34578;0.000;0.000;2023-07-30T10:10:40;9.10;;;1.73;;
48777;SDS011;34578;0.000;0.000;2023-07-30T10:15:41;6.53;;;1.70;;
48777;SDS011;34578;0.000;0.000;2023-07-30T10:20:41;2.20;;;1.33;;
48777;SDS011;34578;0.000;0.000;2023-07-30T10:25:53;10.43;;;2.78;;
48777;SDS011;34578;0.000;0.000;2023-07-30T10:30:56;10.18;;;2.53;;
48777;SDS011;34578;0.000;0.000;2023-07-30T10:35:58;9.43;;;2.08;;
48777;SDS011;34578;0.000;0.000;2023-07-30T10:41:02;4.27;;;1.83;;
48777;SDS011;34578;0.000;0.000;2023-07-30T10:46:05;5.95;;;2.05;;
48777;SDS011;34578;0.000;0.000;2023-07-30T10:51:07;24.23;;;4.32;;
48777;SDS011;34578;0.000;0.000;2023-07-30T10:56:09;16.63;;;2.22;;
48777;SDS011;34578;0.000;0.000;2023-07-30T11:01:10;8.48;;;2.00;;
48777;SDS011;34578;0.000;0.000;2023-07-30T11:06:10;3.95;;;1.80;;
48777;SDS011;34578;0.000;0.000;2023-07-30T11:11:11;3.07;;;1.80;;
48777;SDS011;34578;0.000;0.000;2023-07-30T11:16:12;5.90;;;2.27;;
48777;SDS011;34578;0.000;0.000;2023-07-30T11:21:16;8.75;;;2.17;;
48777;SDS011;34578;0.000;0.000;2023-07-30T11:26:18;8.40;;;2.53;;
48777;SDS011;34578;0.000;0.000;2023-07-30T11:31:19;9.82;;;2.00;;
48777;SDS011;34578;0.000;0.000;2023-07-30T11:36:22;4.70;;;1.80;;
48777;SDS011;34578;0.000;0.000;2023-07-30T11:41:25;4.35;;;2.03;;
48777;SDS011;34578;0.000;0.000;2023-07-30T11:46:26;4.97;;;1.88;;
48777;SDS011;34578;0.000;0.000;2023-07-30T11:51:27;5.47;;;2.83;;
48777;SDS011;34578;0.000;0.000;2023-07-30T11:56:29;7.90;;;2.20;;
48777;SDS011;34578;0.000;0.000;2023-07-30T12:01:31;5.97;;;2.03;;
48777;SDS011;34578;0.000;0.000;2023-07-30T12:06:38;4.13;;;2.08;;
48777;SDS011;34578;0.000;0.000;2023-07-30T12:16:54;4.25;;;2.25;;
48777;SDS011;34578;0.000;0.000;2023-07-30T12:21:56;4.88;;;2.45;;
48777;SDS011;34578;0.000;0.000;2023-07-30T12:26:56;6.87;;;2.70;;
48777;SDS011;34578;0.000;0.000;2023-07-30T12:31:56;6.83;;;2.83;;
48777;SDS011;34578;0.000;0.000;2023-07-30T12:36:57;2.27;;;1.87;;
48777;SDS011;34578;0.000;0.000;2023-07-30T12:41:58;2.63;;;2.17;;
48777;SDS011;34578;0.000;0.000;2023-07-30T12:46:59;4.13;;;2.83;;
48777;SDS011;34578;0.000;0.000;2023-07-30T12:51:59;7.13;;;4.23;;
48777;SDS011;34578;0.000;0.000;2023-07-30T12:56:59;5.23;;;3.40;;
48777;SDS011;34578;0.000;0.000;2023-07-30T13:02:00;5.30;;;3.47;;
48777;SDS011;34578;0.000;0.000;2023-07-30T13:07:00;5.67;;;3.27;;
48777;SDS011;34578;0.000;0.000;2023-07-30T13:12:00;7.70;;;3.33;;
48777;SDS011;34578;0.000;0.000;2023-07-30T13:17:01;6.37;;;3.50;;
48777;SDS011;34578;0.000;0.000;2023-07-30T13:22:01;5.47;;;2.60;;
48777;SDS011;34578;0.000;0.000;2023-07-30T13:27:01;1.83;;;1.60;;
48777;SDS011;34578;0.000;0.000;2023-07-30T13:32:02;3.50;;;2.25;;
48777;SDS011;34578;0.000;0.000;2023-07-30T13:37:02;4.07;;;2.60;;
48777;SDS011;34578;0.000;0.000;2023-07-30T13:42:03;4.35;;;2.22;;
48777;SDS011;34578;0.000;0.000;2023-07-30T13:47:04;4.35;;;2.75;;
48777;SDS011;34578;0.000;0.000;2023-07-30T13:52:05;3.65;;;2.20;;
48777;SDS011;34578;0.000;0.000;2023-07-30T13:57:06;4.65;;;2.10;;
48777;SDS011;34578;0.000;0.000;2023-07-30T14:02:06;3.53;;;2.35;;
48777;SDS011;34578;0.000;0.000;2023-07-30T14:07:07;4.00;;;2.33;;
48777;SDS011;34578;0.000;0.000;2023-07-30T14:12:07;2.35;;;1.85;;
48777;SDS011;34578;0.000;0.000;2023-07-30T14:17:08;3.28;;;1.83;;
48777;SDS011;34578;0.000;0.000;2023-07-30T14:22:08;2.70;;;2.27;;
48777;SDS011;34578;0.000;0.000;2023-07-30T14:27:08;2.43;;;2.00;;
48777;SDS011;34578;0.000;0.000;2023-07-30T14:32:09;2.83;;;1.80;;
48777;SDS011;34578;0.000;0.000;2023-07-30T14:37:09;2.87;;;1.93;;
48777;SDS011;34578;0.000;0.000;2023-07-30T14:42:10;3.30;;;1.67;;
48777;SDS011;34578;0.000;0.000;2023-07-30T14:47:10;2.03;;;1.83;;
48777;SDS011;34578;0.000;0.000;2023-07-30T14:52:11;3.05;;;1.75;;
48777;SDS011;34578;0.000;0.000;2023-07-30T14:57:12;1.67;;;1.47;;
48777;SDS011;34578;0.000;0.000;2023-07-30T15:02:12;2.53;;;1.80;;
48777;SDS011;34578;0.000;0.000;2023-07-30T15:07:13;2.08;;;1.48;;
48777;SDS011;34578;0.000;0.000;2023-07-30T15:12:13;2.47;;;1.57;;
48777;SDS011;34578;0.000;0.000;2023-07-30T15:17:14;2.10;;;1.67;;
48777;SDS011;34578;0.000;0.000;2023-07-30T15:22:14;1.63;;;1.53;;
48777;SDS011;34578;0.000;0.000;2023-07-30T15:27:14;2.13;;;1.50;;
48777;SDS011;34578;0.000;0.000;2023-07-30T15:32:15;1.80;;;1.50;;
48777;SDS011;34578;0.000;0.000;2023-07-30T15:37:15;1.83;;;1.33;;
48777;SDS011;34578;0.000;0.000;2023-07-30T15:42:16;1.73;;;1.35;;
48777;SDS011;34578;0.000;0.000;2023-07-30T15:47:17;1.40;;;1.30;;
48777;SDS011;34578;0.000;0.000;2023-07-30T15:52:17;1.47;;;1.17;;
48777;SDS011;34578;0.000;0.000;2023-07-30T15:57:17;2.20;;;1.47;;
48777;SDS011;34578;0.000;0.000;2023-07-30T16:02:18;1.50;;;1.40;;
48777;SDS011;34578;0.000;0.000;2023-07-30T16:07:18;1.50;;;1.33;;
48777;SDS011;34578;0.000;0.000;2023-07-30T16:12:19;1.57;;;1.23;;
48777;SDS011;34578;0.000;0.000;2023-07-30T16:17:19;6.90;;;1.60;;
48777;SDS011;34578;0.000;0.000;2023-07-30T16:22:20;1.95;;;1.25;;
48777;SDS011;34578;0.000;0.000;2023-07-30T16:27:20;1.77;;;1.48;;
48777;SDS011;34578;0.000;0.000;2023-07-30T16:32:20;2.10;;;1.30;;
48777;SDS011;34578;0.000;0.000;2023-07-30T16:37:23;10.02;;;1.67;;
48777;SDS011;34578;0.000;0.000;2023-07-30T16:42:24;2.87;;;1.50;;
48777;SDS011;34578;0.000;0.000;2023-07-30T16:47:24;3.77;;;1.50;;
48777;SDS011;34578;0.000;0.000;2023-07-30T16:52:24;2.83;;;1.40;;
48777;SDS011;34578;0.000;0.000;2023-07-30T16:57:25;1.60;;;1.30;;
48777;SDS011;34578;0.000;0.000;2023-07-30T17:02:25;2.03;;;1.60;;
48777;SDS011;34578;0.000;0.000;2023-07-30T17:07:25;2.40;;;1.40;;
48777;SDS011;34578;0.000;0.000;2023-07-30T17:12:26;1.95;;;1.27;;
48777;SDS011;34578;0.000;0.000;2023-07-30T17:17:26;4.73;;;1.33;;
48777;SDS011;34578;0.000;0.000;2023-07-30T17:22:26;1.20;;;0.90;;
48777;SDS011;34578;0.000;0.000;2023-07-30T17:27:27;4.70;;;1.13;;
48777;SDS011;34578;0.000;0.000;2023-07-30T17:32:27;6.73;;;1.83;;
48777;SDS011;34578;0.000;0.000;2023-07-30T17:37:28;3.28;;;1.40;;
48777;SDS011;34578;0.000;0.000;2023-07-30T17:42:30;1.42;;;1.23;;
48777;SDS011;34578;0.000;0.000;2023-07-30T17:47:31;3.97;;;1.27;;
48777;SDS011;34578;0.000;0.000;2023-07-30T17:52:31;1.77;;;1.03;;
48777;SDS011;34578;0.000;0.000;2023-07-30T17:57:32;1.77;;;1.47;;
48777;SDS011;34578;0.000;0.000;2023-07-30T18:02:33;3.17;;;1.23;;
48777;SDS011;34578;0.000;0.000;2023-07-30T18:07:33;2.35;;;1.30;;
48777;SDS011;34578;0.000;0.000;2023-07-30T18:12:36;1.48;;;1.38;;
48777;SDS011;34578;0.000;0.000;2023-07-30T18:17:36;3.93;;;1.70;;
48777;SDS011;34578;0.000;0.000;2023-07-30T18:22:37;1.73;;;1.42;;
48777;SDS011;34578;0.000;0.000;2023-07-30T18:27:37;3.60;;;1.73;;
48777;SDS011;34578;0.000;0.000;2023-07-30T18:32:37;0.87;;;0.80;;
48777;SDS011;34578;0.000;0.000;2023-07-30T18:37:38;2.23;;;0.97;;
48777;SDS011;34578;0.000;0.000;2023-07-30T18:42:38;1.58;;;0.98;;
48777;SDS011;34578;0.000;0.000;2023-07-30T18:47:39;2.20;;;1.02;;
48777;SDS011;34578;0.000;0.000;2023-07-30T18:52:40;2.15;;;1.10;;
48777;SDS011;34578;0.000;0.000;2023-07-30T18:57:40;1.87;;;1.23;;
48777;SDS011;34578;0.000;0.000;2023-07-30T19:02:40;1.57;;;1.10;;
48777;SDS011;34578;0.000;0.000;2023-07-30T19:07:41;2.53;;;1.53;;
48777;SDS011;34578;0.000;0.000;2023-07-30T19:12:41;2.20;;;1.50;;
48777;SDS011;34578;0.000;0.000;2023-07-30T19:17:41;1.77;;;0.70;;
48777;SDS011;34578;0.000;0.000;2023-07-30T19:22:42;3.60;;;0.93;;
48777;SDS011;34578;0.000;0.000;2023-07-30T19:27:42;1.50;;;1.03;;
48777;SDS011;34578;0.000;0.000;2023-07-30T19:32:42;1.60;;;1.23;;
48777;SDS011;34578;0.000;0.000;2023-07-30T19:37:43;1.25;;;1.08;;
48777;SDS011;34578;0.000;0.000;2023-07-30T19:42:44;5.10;;;1.10;;
48777;SDS011;34578;0.000;0.000;2023-07-30T19:47:45;5.60;;;1.90;;
48777;SDS011;34578;0.000;0.000;2023-07-30T19:52:45;2.93;;;1.47;;
48777;SDS011;34578;0.000;0.000;2023-07-30T19:57:45;2.42;;;1.35;;
48777;SDS011;34578;0.000;0.000;2023-07-30T20:02:46;2.63;;;1.27;;
48777;SDS011;34578;0.000;0.000;2023-07-30T20:07:46;1.60;;;0.90;;
48777;SDS011;34578;0.000;0.000;2023-07-30T20:12:47;2.03;;;0.93;;
48777;SDS011;34578;0.000;0.000;2023-07-30T20:17:47;1.50;;;0.90;;
48777;SDS011;34578;0.000;0.000;2023-07-30T20:22:48;2.00;;;1.17;;
48777;SDS011;34578;0.000;0.000;2023-07-30T20:27:48;2.07;;;1.10;;
48777;SDS011;34578;0.000;0.000;2023-07-30T20:32:48;5.33;;;3.07;;
48777;SDS011;34578;0.000;0.000;2023-07-30T20:37:49;3.07;;;1.30;;
48777;SDS011;34578;0.000;0.000;2023-07-30T20:42:51;5.15;;;2.20;;
48777;SDS011;34578;0.000;0.000;2023-07-30T20:47:52;3.28;;;1.33;;
48777;SDS011;34578;0.000;0.000;2023-07-30T20:52:54;2.08;;;1.00;;
48777;SDS011;34578;0.000;0.000;2023-07-30T20:57:54;3.27;;;1.30;;
48777;SDS011;34578;0.000;0.000;2023-07-30T21:02:54;4.55;;;1.40;;
48777;SDS011;34578;0.000;0.000;2023-07-30T21:07:55;4.77;;;1.20;;
48777;SDS011;34578;0.000;0.000;2023-07-30T21:12:55;4.77;;;1.37;;
48777;SDS011;34578;0.000;0.000;2023-07-30T21:17:55;2.67;;;1.50;;
48777;SDS011;34578;0.000;0.000;2023-07-30T21:22:56;3.67;;;1.73;;
48777;SDS011;34578;0.000;0.000;2023-07-30T21:27:56;2.83;;;1.33;;
48777;SDS011;34578;0.000;0.000;2023-07-30T21:32:57;5.50;;;1.63;;
48777;SDS011;34578;0.000;0.000;2023-07-30T21:37:58;4.25;;;1.35;;
48777;SDS011;34578;0.000;0.000;2023-07-30T21:42:58;3.03;;;1.40;;
48777;SDS011;34578;0.000;0.000;2023-07-30T21:47:58;7.00;;;1.57;;
48777;SDS011;34578;0.000;0.000;2023-07-30T21:52:59;3.83;;;1.37;;
48777;SDS011;34578;0.000;0.000;2023-07-30T21:57:59;3.33;;;1.40;;
48777;SDS011;34578;0.000;0.000;2023-07-30T22:02:59;8.93;;;1.90;;
48777;SDS011;34578;0.000;0.000;2023-07-30T22:08:00;2.33;;;1.40;;
48777;SDS011;34578;0.000;0.000;2023-07-30T22:13:00;3.60;;;1.73;;
48777;SDS011;34578;0.000;0.000;2023-07-30T22:18:00;3.57;;;2.10;;
48777;SDS011;34578;0.000;0.000;2023-07-30T22:23:01;3.00;;;1.20;;
48777;SDS011;34578;0.000;0.000;2023-07-30T22:28:02;3.42;;;1.30;;
48777;SDS011;34578;0.000;0.000;2023-07-30T22:33:02;5.28;;;1.30;;
48777;SDS011;34578;0.000;0.000;2023-07-30T22:38:05;4.07;;;1.45;;
48777;SDS011;34578;0.000;0.000;2023-07-30T22:43:05;3.30;;;1.40;;
48777;SDS011;34578;0.000;0.000;2023-07-30T22:48:06;5.53;;;2.00;;
48777;SDS011;34578;0.000;0.000;2023-07-30T22:53:06;5.80;;;2.17;;
48777;SDS011;34578;0.000;0.000;2023-07-30T22:58:07;6.40;;;1.80;;
48777;SDS011;34578;0.000;0.000;2023-07-30T23:03:08;8.23;;;1.80;;
48777;SDS011;34578;0.000;0.000;2023-07-30T23:08:08;3.50;;;1.50;;
48777;SDS011;34578;0.000;0.000;2023-07-30T23:13:08;4.03;;;1.40;;
48777;SDS011;34578;0.000;0.000;2023-07-30T23:18:09;2.10;;;1.30;;
48777;SDS011;34578;0.000;0.000;2023-07-30T23:23:09;2.37;;;1.10;;
48777;SDS011;34578;0.000;0.000;2023-07-30T23:28:09;2.60;;;1.45;;
48777;SDS011;34578;0.000;0.000;2023-07-30T23:33:10;4.00;;;1.57;;
48777;SDS011;34578;0.000;0.000;2023-07-30T23:38:10;1.93;;;1.20;;
48777;SDS011;34578;0.000;0.000;2023-07-30T23:43:10;6.87;;;1.60;;
48777;SDS011;34578;0.000;0.000;2023-07-30T23:48:11;3.03;;;1.50;;
48777;SDS011;34578;0.000;0.000;2023-07-30T23:53:11;4.27;;;1.53;;
48777;SDS011;34578;0.000;0.000;2023-07-30T23:58:12;2.83;;;1.50;;
